sensor_id;sensor_type;location;lat;lon;timestamp;temperature;humidity
43581;DHT22;29175;51.030;4.606;2022-09-09T00:02:01;17.00;99.90
43581;DHT22;29175;51.030;4.606;2022-09-09T00:04:32;17.00;99.90
43581;DHT22;29175;51.030;4.606;2022-09-09T00:07:19;17.00;99.90
43581;DHT22;29175;51.030;4.606;2022-09-09T00:15:35;17.00;99.90
43581;DHT22;29175;51.030;4.606;2022-09-09T00:20:49;17.00;99.90
43581;DHT22;29175;51.030;4.606;2022-09-09T00:23:27;17.00;99.90
43581;DHT22;29175;51.030;4.606;2022-09-09T00:26:19;17.00;99.90
43581;DHT22;29175;51.030;4.606;2022-09-09T00:32:17;17.10;99.90
43581;DHT22;29175;51.030;4.606;2022-09-09T00:34:56;17.20;99.90
43581;DHT22;29175;51.030;4.606;2022-09-09T00:37:24;17.10;99.90
43581;DHT22;29175;51.030;4.606;2022-09-09T00:49:27;16.90;99.90
43581;DHT22;29175;51.030;4.606;2022-09-09T00:57:29;17.00;99.90
43581;DHT22;29175;51.030;4.606;2022-09-09T01:00:17;17.20;99.90
43581;DHT22;29175;51.030;4.606;2022-09-09T01:05:46;17.10;99.90
43581;DHT22;29175;51.030;4.606;2022-09-09T01:08:38;16.90;99.90
43581;DHT22;29175;51.030;4.606;2022-09-09T01:11:31;17.00;99.90
43581;DHT22;29175;51.030;4.606;2022-09-09T01:14:41;16.90;99.90
43581;DHT22;29175;51.030;4.606;2022-09-09T01:22:18;16.90;99.90
43581;DHT22;29175;51.030;4.606;2022-09-09T01:27:36;16.80;99.90
43581;DHT22;29175;51.030;4.606;2022-09-09T01:30:11;16.90;99.90
43581;DHT22;29175;51.030;4.606;2022-09-09T01:35:29;16.80;99.90
43581;DHT22;29175;51.030;4.606;2022-09-09T01:37:57;17.00;99.90
43581;DHT22;29175;51.030;4.606;2022-09-09T01:46:57;17.00;99.90
43581;DHT22;29175;51.030;4.606;2022-09-09T01:49:23;16.90;99.90
43581;DHT22;29175;51.030;4.606;2022-09-09T02:02:41;17.20;99.90
43581;DHT22;29175;51.030;4.606;2022-09-09T02:07:47;16.90;99.90
43581;DHT22;29175;51.030;4.606;2022-09-09T02:10:25;16.90;99.90
43581;DHT22;29175;51.030;4.606;2022-09-09T02:23:01;16.80;99.90
43581;DHT22;29175;51.030;4.606;2022-09-09T02:25:28;16.90;99.90
43581;DHT22;29175;51.030;4.606;2022-09-09T02:34:51;16.80;99.90
43581;DHT22;29175;51.030;4.606;2022-09-09T02:37:24;16.80;99.90
43581;DHT22;29175;51.030;4.606;2022-09-09T02:39:54;16.70;99.90
43581;DHT22;29175;51.030;4.606;2022-09-09T02:42:20;16.70;99.90
43581;DHT22;29175;51.030;4.606;2022-09-09T02:44:46;16.70;99.90
43581;DHT22;29175;51.030;4.606;2022-09-09T02:47:38;16.80;99.90
43581;DHT22;29175;51.030;4.606;2022-09-09T02:50:17;16.80;99.90
43581;DHT22;29175;51.030;4.606;2022-09-09T02:58:55;16.60;99.90
43581;DHT22;29175;51.030;4.606;2022-09-09T03:01:21;16.60;99.90
43581;DHT22;29175;51.030;4.606;2022-09-09T03:03:47;16.50;99.90
43581;DHT22;29175;51.030;4.606;2022-09-09T03:06:13;16.50;99.90
43581;DHT22;29175;51.030;4.606;2022-09-09T03:08:40;16.60;99.90
43581;DHT22;29175;51.030;4.606;2022-09-09T03:14:27;16.80;99.90
43581;DHT22;29175;51.030;4.606;2022-09-09T03:16:54;16.80;99.90
43581;DHT22;29175;51.030;4.606;2022-09-09T03:19:20;16.90;99.90
43581;DHT22;29175;51.030;4.606;2022-09-09T03:21:46;16.80;99.90
43581;DHT22;29175;51.030;4.606;2022-09-09T03:24:25;16.80;99.90
43581;DHT22;29175;51.030;4.606;2022-09-09T03:26:51;16.80;99.90
43581;DHT22;29175;51.030;4.606;2022-09-09T03:29:17;16.70;99.90
43581;DHT22;29175;51.030;4.606;2022-09-09T03:31:44;16.60;99.90
43581;DHT22;29175;51.030;4.606;2022-09-09T03:34:10;16.70;99.90
43581;DHT22;29175;51.030;4.606;2022-09-09T03:36:36;16.80;99.90
43581;DHT22;29175;51.030;4.606;2022-09-09T03:39:02;16.70;99.90
43581;DHT22;29175;51.030;4.606;2022-09-09T03:41:29;16.80;99.90
43581;DHT22;29175;51.030;4.606;2022-09-09T03:43:55;16.70;99.90
43581;DHT22;29175;51.030;4.606;2022-09-09T03:46:23;16.70;99.90
43581;DHT22;29175;51.030;4.606;2022-09-09T03:48:49;16.80;99.90
43581;DHT22;29175;51.030;4.606;2022-09-09T03:51:15;16.80;99.90
43581;DHT22;29175;51.030;4.606;2022-09-09T03:53:41;16.80;99.90
43581;DHT22;29175;51.030;4.606;2022-09-09T03:56:07;16.80;99.90
43581;DHT22;29175;51.030;4.606;2022-09-09T03:58:36;16.70;99.90
43581;DHT22;29175;51.030;4.606;2022-09-09T04:01:10;16.70;99.90
43581;DHT22;29175;51.030;4.606;2022-09-09T04:07:00;16.70;99.90
43581;DHT22;29175;51.030;4.606;2022-09-09T04:09:26;16.70;99.90
43581;DHT22;29175;51.030;4.606;2022-09-09T04:11:52;16.80;99.90
43581;DHT22;29175;51.030;4.606;2022-09-09T04:14:19;16.70;99.90
43581;DHT22;29175;51.030;4.606;2022-09-09T04:16:45;16.70;99.90
43581;DHT22;29175;51.030;4.606;2022-09-09T04:19:12;16.70;99.90
43581;DHT22;29175;51.030;4.606;2022-09-09T04:21:40;16.70;99.90
43581;DHT22;29175;51.030;4.606;2022-09-09T04:24:07;16.70;99.90
43581;DHT22;29175;51.030;4.606;2022-09-09T04:26:33;16.60;99.90
43581;DHT22;29175;51.030;4.606;2022-09-09T04:28:59;16.60;99.90
43581;DHT22;29175;51.030;4.606;2022-09-09T04:34:34;16.70;99.90
43581;DHT22;29175;51.030;4.606;2022-09-09T04:36:59;16.60;99.90
43581;DHT22;29175;51.030;4.606;2022-09-09T04:39:26;16.50;99.90
43581;DHT22;29175;51.030;4.606;2022-09-09T04:41:52;16.60;99.90
43581;DHT22;29175;51.030;4.606;2022-09-09T04:44:18;16.70;99.90
43581;DHT22;29175;51.030;4.606;2022-09-09T04:46:44;16.50;99.90
43581;DHT22;29175;51.030;4.606;2022-09-09T04:49:10;16.60;99.90
43581;DHT22;29175;51.030;4.606;2022-09-09T04:51:36;16.50;99.90
43581;DHT22;29175;51.030;4.606;2022-09-09T04:54:01;16.50;99.90
43581;DHT22;29175;51.030;4.606;2022-09-09T04:56:27;16.60;99.90
43581;DHT22;29175;51.030;4.606;2022-09-09T04:58:53;16.60;99.90
43581;DHT22;29175;51.030;4.606;2022-09-09T05:01:22;16.60;99.90
43581;DHT22;29175;51.030;4.606;2022-09-09T05:03:49;16.70;99.90
43581;DHT22;29175;51.030;4.606;2022-09-09T05:06:17;16.70;99.90
43581;DHT22;29175;51.030;4.606;2022-09-09T05:08:44;16.70;99.90
43581;DHT22;29175;51.030;4.606;2022-09-09T05:13:50;16.50;99.90
43581;DHT22;29175;51.030;4.606;2022-09-09T05:16:16;16.50;99.90
43581;DHT22;29175;51.030;4.606;2022-09-09T05:18:43;16.70;99.90
43581;DHT22;29175;51.030;4.606;2022-09-09T05:21:12;16.70;99.90
43581;DHT22;29175;51.030;4.606;2022-09-09T05:23:39;16.50;99.90
43581;DHT22;29175;51.030;4.606;2022-09-09T05:26:07;16.60;99.90
43581;DHT22;29175;51.030;4.606;2022-09-09T05:28:35;16.70;99.90
43581;DHT22;29175;51.030;4.606;2022-09-09T05:31:04;16.80;99.90
43581;DHT22;29175;51.030;4.606;2022-09-09T05:33:31;16.90;99.90
43581;DHT22;29175;51.030;4.606;2022-09-09T05:36:02;16.90;99.90
43581;DHT22;29175;51.030;4.606;2022-09-09T05:38:30;16.80;99.90
43581;DHT22;29175;51.030;4.606;2022-09-09T05:40:56;16.90;99.90
43581;DHT22;29175;51.030;4.606;2022-09-09T05:43:25;16.90;99.90
43581;DHT22;29175;51.030;4.606;2022-09-09T05:46:05;17.10;99.90
43581;DHT22;29175;51.030;4.606;2022-09-09T05:48:33;17.20;99.90
43581;DHT22;29175;51.030;4.606;2022-09-09T05:51:00;17.40;99.90
43581;DHT22;29175;51.030;4.606;2022-09-09T05:53:26;17.60;99.90
43581;DHT22;29175;51.030;4.606;2022-09-09T05:59:14;18.00;99.90
43581;DHT22;29175;51.030;4.606;2022-09-09T06:01:40;18.00;99.90
43581;DHT22;29175;51.030;4.606;2022-09-09T06:04:18;18.00;99.90
43581;DHT22;29175;51.030;4.606;2022-09-09T06:06:47;18.10;99.90
43581;DHT22;29175;51.030;4.606;2022-09-09T06:09:14;18.00;99.90
43581;DHT22;29175;51.030;4.606;2022-09-09T06:11:41;18.10;99.90
43581;DHT22;29175;51.030;4.606;2022-09-09T06:14:07;18.10;99.90
43581;DHT22;29175;51.030;4.606;2022-09-09T06:16:33;17.90;99.90
43581;DHT22;29175;51.030;4.606;2022-09-09T06:18:59;18.10;99.90
43581;DHT22;29175;51.030;4.606;2022-09-09T06:21:30;18.20;99.90
43581;DHT22;29175;51.030;4.606;2022-09-09T06:23:58;18.20;99.90
43581;DHT22;29175;51.030;4.606;2022-09-09T06:26:34;18.10;99.90
43581;DHT22;29175;51.030;4.606;2022-09-09T06:29:01;18.20;99.90
43581;DHT22;29175;51.030;4.606;2022-09-09T06:31:30;18.20;99.90
43581;DHT22;29175;51.030;4.606;2022-09-09T06:33:58;18.30;99.90
43581;DHT22;29175;51.030;4.606;2022-09-09T06:36:32;18.30;99.90
43581;DHT22;29175;51.030;4.606;2022-09-09T06:38:58;18.90;99.90
43581;DHT22;29175;51.030;4.606;2022-09-09T06:41:26;19.10;99.90
43581;DHT22;29175;51.030;4.606;2022-09-09T06:43:52;19.00;99.90
43581;DHT22;29175;51.030;4.606;2022-09-09T06:46:29;19.70;99.90
43581;DHT22;29175;51.030;4.606;2022-09-09T06:48:57;20.60;99.90
43581;DHT22;29175;51.030;4.606;2022-09-09T06:51:27;20.70;99.90
43581;DHT22;29175;51.030;4.606;2022-09-09T06:53:55;20.20;99.90
43581;DHT22;29175;51.030;4.606;2022-09-09T06:56:32;19.90;99.90
43581;DHT22;29175;51.030;4.606;2022-09-09T06:59:00;19.80;99.90
43581;DHT22;29175;51.030;4.606;2022-09-09T07:01:29;19.70;99.90
43581;DHT22;29175;51.030;4.606;2022-09-09T07:03:57;19.80;99.90
43581;DHT22;29175;51.030;4.606;2022-09-09T07:06:26;19.70;99.90
43581;DHT22;29175;51.030;4.606;2022-09-09T07:08:56;19.50;99.90
43581;DHT22;29175;51.030;4.606;2022-09-09T07:11:23;19.50;99.90
43581;DHT22;29175;51.030;4.606;2022-09-09T07:13:49;19.10;99.90
43581;DHT22;29175;51.030;4.606;2022-09-09T07:16:17;19.10;99.90
43581;DHT22;29175;51.030;4.606;2022-09-09T07:22:05;19.10;99.90
43581;DHT22;29175;51.030;4.606;2022-09-09T07:24:31;18.80;99.90
43581;DHT22;29175;51.030;4.606;2022-09-09T07:30:19;19.10;99.90
43581;DHT22;29175;51.030;4.606;2022-09-09T07:32:45;19.10;99.90
43581;DHT22;29175;51.030;4.606;2022-09-09T07:35:11;19.20;99.90
43581;DHT22;29175;51.030;4.606;2022-09-09T07:37:37;19.20;99.90
43581;DHT22;29175;51.030;4.606;2022-09-09T07:40:03;19.00;99.90
43581;DHT22;29175;51.030;4.606;2022-09-09T07:42:30;19.20;99.90
43581;DHT22;29175;51.030;4.606;2022-09-09T07:44:56;19.50;99.90
43581;DHT22;29175;51.030;4.606;2022-09-09T07:47:22;19.40;99.90
43581;DHT22;29175;51.030;4.606;2022-09-09T07:49:50;19.50;99.90
43581;DHT22;29175;51.030;4.606;2022-09-09T07:52:16;19.30;99.90
43581;DHT22;29175;51.030;4.606;2022-09-09T07:54:42;19.50;99.90
43581;DHT22;29175;51.030;4.606;2022-09-09T08:00:29;19.50;99.90
43581;DHT22;29175;51.030;4.606;2022-09-09T08:02:55;19.20;99.90
43581;DHT22;29175;51.030;4.606;2022-09-09T08:05:21;19.40;99.90
43581;DHT22;29175;51.030;4.606;2022-09-09T08:07:47;19.00;99.90
43581;DHT22;29175;51.030;4.606;2022-09-09T08:10:13;19.30;99.90
43581;DHT22;29175;51.030;4.606;2022-09-09T08:12:41;19.40;99.90
43581;DHT22;29175;51.030;4.606;2022-09-09T08:15:07;19.40;99.90
43581;DHT22;29175;51.030;4.606;2022-09-09T08:17:34;20.10;99.90
43581;DHT22;29175;51.030;4.606;2022-09-09T08:19:59;20.20;99.90
43581;DHT22;29175;51.030;4.606;2022-09-09T08:22:29;20.90;99.90
43581;DHT22;29175;51.030;4.606;2022-09-09T08:24:55;21.10;99.90
43581;DHT22;29175;51.030;4.606;2022-09-09T08:27:21;22.00;99.90
43581;DHT22;29175;51.030;4.606;2022-09-09T08:29:48;22.40;99.90
43581;DHT22;29175;51.030;4.606;2022-09-09T08:32:13;22.00;99.90
43581;DHT22;29175;51.030;4.606;2022-09-09T08:34:39;22.00;99.90
43581;DHT22;29175;51.030;4.606;2022-09-09T08:37:05;21.80;99.90
43581;DHT22;29175;51.030;4.606;2022-09-09T08:39:31;21.30;99.90
43581;DHT22;29175;51.030;4.606;2022-09-09T08:42:17;21.30;99.90
43581;DHT22;29175;51.030;4.606;2022-09-09T08:51:07;20.40;99.90
43581;DHT22;29175;51.030;4.606;2022-09-09T08:53:44;20.30;99.90
43581;DHT22;29175;51.030;4.606;2022-09-09T08:56:15;20.40;99.90
43581;DHT22;29175;51.030;4.606;2022-09-09T08:58:46;20.00;99.90
43581;DHT22;29175;51.030;4.606;2022-09-09T09:05:04;20.30;99.90
43581;DHT22;29175;51.030;4.606;2022-09-09T09:10:47;19.70;99.90
43581;DHT22;29175;51.030;4.606;2022-09-09T09:13:18;19.60;99.90
43581;DHT22;29175;51.030;4.606;2022-09-09T09:15:53;19.70;99.90
43581;DHT22;29175;51.030;4.606;2022-09-09T09:18:20;19.80;99.90
43581;DHT22;29175;51.030;4.606;2022-09-09T09:20:54;19.50;99.90
43581;DHT22;29175;51.030;4.606;2022-09-09T09:27:12;19.40;99.90
43581;DHT22;29175;51.030;4.606;2022-09-09T09:29:40;19.40;99.90
43581;DHT22;29175;51.030;4.606;2022-09-09T09:32:13;19.30;99.90
43581;DHT22;29175;51.030;4.606;2022-09-09T09:34:40;19.20;99.90
43581;DHT22;29175;51.030;4.606;2022-09-09T09:37:16;19.40;99.90
43581;DHT22;29175;51.030;4.606;2022-09-09T09:39:45;19.60;99.90
43581;DHT22;29175;51.030;4.606;2022-09-09T09:42:17;19.40;99.90
43581;DHT22;29175;51.030;4.606;2022-09-09T09:44:43;19.50;99.90
43581;DHT22;29175;51.030;4.606;2022-09-09T09:47:13;19.40;99.90
43581;DHT22;29175;51.030;4.606;2022-09-09T09:49:39;19.40;99.90
43581;DHT22;29175;51.030;4.606;2022-09-09T09:52:18;19.50;99.90
43581;DHT22;29175;51.030;4.606;2022-09-09T09:54:46;19.70;99.90
43581;DHT22;29175;51.030;4.606;2022-09-09T09:57:14;19.50;99.90
43581;DHT22;29175;51.030;4.606;2022-09-09T10:03:34;19.80;99.90
43581;DHT22;29175;51.030;4.606;2022-09-09T10:06:03;19.90;99.90
43581;DHT22;29175;51.030;4.606;2022-09-09T10:08:29;19.60;99.90
43581;DHT22;29175;51.030;4.606;2022-09-09T10:14:15;20.20;99.90
43581;DHT22;29175;51.030;4.606;2022-09-09T10:17:18;20.20;99.90
43581;DHT22;29175;51.030;4.606;2022-09-09T10:22:32;20.10;99.90
43581;DHT22;29175;51.030;4.606;2022-09-09T10:35:14;20.40;99.90
43581;DHT22;29175;51.030;4.606;2022-09-09T10:38:12;20.30;99.90
43581;DHT22;29175;51.030;4.606;2022-09-09T10:40:43;20.20;99.90
43581;DHT22;29175;51.030;4.606;2022-09-09T10:46:27;20.20;99.90
43581;DHT22;29175;51.030;4.606;2022-09-09T10:54:30;21.30;99.90
43581;DHT22;29175;51.030;4.606;2022-09-09T10:57:08;21.20;99.90
43581;DHT22;29175;51.030;4.606;2022-09-09T10:59:44;21.10;99.90
43581;DHT22;29175;51.030;4.606;2022-09-09T11:04:53;21.10;99.90
43581;DHT22;29175;51.030;4.606;2022-09-09T11:07:54;20.90;99.90
43581;DHT22;29175;51.030;4.606;2022-09-09T11:10:24;20.70;99.90
43581;DHT22;29175;51.030;4.606;2022-09-09T11:12:56;20.90;99.90
43581;DHT22;29175;51.030;4.606;2022-09-09T11:15:38;21.00;99.90
43581;DHT22;29175;51.030;4.606;2022-09-09T11:18:06;21.20;99.90
43581;DHT22;29175;51.030;4.606;2022-09-09T11:20:32;21.50;99.90
43581;DHT22;29175;51.030;4.606;2022-09-09T11:23:09;21.50;99.90
43581;DHT22;29175;51.030;4.606;2022-09-09T11:25:45;20.80;99.90
43581;DHT22;29175;51.030;4.606;2022-09-09T11:33:55;20.80;99.90
43581;DHT22;29175;51.030;4.606;2022-09-09T11:41:36;21.00;99.90
43581;DHT22;29175;51.030;4.606;2022-09-09T11:44:11;21.50;99.90
43581;DHT22;29175;51.030;4.606;2022-09-09T11:46:38;21.10;99.90
43581;DHT22;29175;51.030;4.606;2022-09-09T11:49:06;20.80;99.90
43581;DHT22;29175;51.030;4.606;2022-09-09T11:51:33;21.10;99.90
43581;DHT22;29175;51.030;4.606;2022-09-09T11:54:00;21.50;99.90
43581;DHT22;29175;51.030;4.606;2022-09-09T11:56:44;21.90;99.90
43581;DHT22;29175;51.030;4.606;2022-09-09T12:01:50;22.50;99.90
43581;DHT22;29175;51.030;4.606;2022-09-09T12:04:41;22.40;99.90
43581;DHT22;29175;51.030;4.606;2022-09-09T12:13:28;22.10;99.90
43581;DHT22;29175;51.030;4.606;2022-09-09T12:15:58;21.10;99.90
43581;DHT22;29175;51.030;4.606;2022-09-09T12:18:38;21.60;99.90
43581;DHT22;29175;51.030;4.606;2022-09-09T12:27:31;21.60;99.90
43581;DHT22;29175;51.030;4.606;2022-09-09T12:30:11;22.10;99.90
43581;DHT22;29175;51.030;4.606;2022-09-09T12:35:59;21.90;99.90
43581;DHT22;29175;51.030;4.606;2022-09-09T12:38:40;22.00;99.90
43581;DHT22;29175;51.030;4.606;2022-09-09T12:41:06;21.80;99.90
43581;DHT22;29175;51.030;4.606;2022-09-09T12:43:45;22.30;99.90
43581;DHT22;29175;51.030;4.606;2022-09-09T12:46:29;22.30;99.90
43581;DHT22;29175;51.030;4.606;2022-09-09T12:48:57;22.00;99.90
43581;DHT22;29175;51.030;4.606;2022-09-09T12:51:29;21.80;99.90
43581;DHT22;29175;51.030;4.606;2022-09-09T12:53:59;21.50;99.90
43581;DHT22;29175;51.030;4.606;2022-09-09T12:56:27;21.40;99.90
43581;DHT22;29175;51.030;4.606;2022-09-09T12:58:56;21.40;99.90
43581;DHT22;29175;51.030;4.606;2022-09-09T13:01:25;21.30;99.90
43581;DHT22;29175;51.030;4.606;2022-09-09T13:03:51;22.00;99.90
43581;DHT22;29175;51.030;4.606;2022-09-09T13:06:28;21.70;99.90
43581;DHT22;29175;51.030;4.606;2022-09-09T13:08:56;21.90;99.90
43581;DHT22;29175;51.030;4.606;2022-09-09T13:11:29;22.20;99.90
43581;DHT22;29175;51.030;4.606;2022-09-09T13:17:21;22.20;99.90
43581;DHT22;29175;51.030;4.606;2022-09-09T13:19:48;22.80;99.90
43581;DHT22;29175;51.030;4.606;2022-09-09T13:22:37;22.80;99.90
43581;DHT22;29175;51.030;4.606;2022-09-09T13:27:41;22.30;99.90
43581;DHT22;29175;51.030;4.606;2022-09-09T13:30:22;22.30;99.90
43581;DHT22;29175;51.030;4.606;2022-09-09T13:35:46;22.10;99.90
43581;DHT22;29175;51.030;4.606;2022-09-09T13:38:14;22.50;99.90
43581;DHT22;29175;51.030;4.606;2022-09-09T13:40:54;22.50;99.90
43581;DHT22;29175;51.030;4.606;2022-09-09T13:43:22;22.40;99.90
43581;DHT22;29175;51.030;4.606;2022-09-09T13:46:03;22.50;99.90
43581;DHT22;29175;51.030;4.606;2022-09-09T13:48:28;22.10;99.90
43581;DHT22;29175;51.030;4.606;2022-09-09T13:50:59;22.60;99.90
43581;DHT22;29175;51.030;4.606;2022-09-09T13:53:25;22.40;99.90
43581;DHT22;29175;51.030;4.606;2022-09-09T13:55:52;22.10;99.90
43581;DHT22;29175;51.030;4.606;2022-09-09T13:58:19;22.00;99.90
43581;DHT22;29175;51.030;4.606;2022-09-09T14:00:45;21.60;99.90
43581;DHT22;29175;51.030;4.606;2022-09-09T14:03:12;21.50;99.90
43581;DHT22;29175;51.030;4.606;2022-09-09T14:05:39;21.80;99.90
43581;DHT22;29175;51.030;4.606;2022-09-09T14:08:06;21.80;99.90
43581;DHT22;29175;51.030;4.606;2022-09-09T14:10:33;22.00;99.90
43581;DHT22;29175;51.030;4.606;2022-09-09T14:13:03;22.30;99.90
43581;DHT22;29175;51.030;4.606;2022-09-09T14:15:30;22.60;99.90
43581;DHT22;29175;51.030;4.606;2022-09-09T14:17:55;22.60;99.90
43581;DHT22;29175;51.030;4.606;2022-09-09T14:20:21;22.90;99.90
43581;DHT22;29175;51.030;4.606;2022-09-09T14:22:47;23.10;99.90
43581;DHT22;29175;51.030;4.606;2022-09-09T14:25:12;23.10;99.90
43581;DHT22;29175;51.030;4.606;2022-09-09T14:27:39;22.90;99.90
43581;DHT22;29175;51.030;4.606;2022-09-09T14:30:06;22.50;99.90
43581;DHT22;29175;51.030;4.606;2022-09-09T14:32:31;22.60;99.90
43581;DHT22;29175;51.030;4.606;2022-09-09T14:34:59;22.60;99.90
43581;DHT22;29175;51.030;4.606;2022-09-09T14:37:25;22.50;99.90
43581;DHT22;29175;51.030;4.606;2022-09-09T14:39:50;22.80;99.90
43581;DHT22;29175;51.030;4.606;2022-09-09T14:42:17;23.00;99.90
43581;DHT22;29175;51.030;4.606;2022-09-09T14:44:49;23.10;99.90
43581;DHT22;29175;51.030;4.606;2022-09-09T14:47:15;23.20;99.90
43581;DHT22;29175;51.030;4.606;2022-09-09T14:49:41;22.50;99.90
43581;DHT22;29175;51.030;4.606;2022-09-09T14:52:08;22.60;99.90
43581;DHT22;29175;51.030;4.606;2022-09-09T14:54:34;22.10;99.90
43581;DHT22;29175;51.030;4.606;2022-09-09T14:57:00;22.20;99.90
43581;DHT22;29175;51.030;4.606;2022-09-09T14:59:25;22.30;99.90
43581;DHT22;29175;51.030;4.606;2022-09-09T15:01:52;22.00;99.90
43581;DHT22;29175;51.030;4.606;2022-09-09T15:04:19;22.10;99.90
43581;DHT22;29175;51.030;4.606;2022-09-09T15:06:46;22.30;99.90
43581;DHT22;29175;51.030;4.606;2022-09-09T15:09:14;22.30;99.90
43581;DHT22;29175;51.030;4.606;2022-09-09T15:11:40;22.50;99.90
43581;DHT22;29175;51.030;4.606;2022-09-09T15:14:07;22.50;99.90
43581;DHT22;29175;51.030;4.606;2022-09-09T15:16:34;22.60;99.90
43581;DHT22;29175;51.030;4.606;2022-09-09T15:19:00;22.50;99.90
43581;DHT22;29175;51.030;4.606;2022-09-09T15:21:31;22.30;99.90
43581;DHT22;29175;51.030;4.606;2022-09-09T15:23:57;21.80;99.90
43581;DHT22;29175;51.030;4.606;2022-09-09T15:26:24;22.10;99.90
43581;DHT22;29175;51.030;4.606;2022-09-09T15:28:50;22.60;99.90
43581;DHT22;29175;51.030;4.606;2022-09-09T15:31:20;22.60;99.90
43581;DHT22;29175;51.030;4.606;2022-09-09T15:36:20;22.50;99.90
43581;DHT22;29175;51.030;4.606;2022-09-09T15:38:49;22.50;99.90
43581;DHT22;29175;51.030;4.606;2022-09-09T15:41:17;22.20;99.90
43581;DHT22;29175;51.030;4.606;2022-09-09T15:43:48;22.10;99.70
43581;DHT22;29175;51.030;4.606;2022-09-09T15:46:35;21.50;99.90
43581;DHT22;29175;51.030;4.606;2022-09-09T15:51:40;20.40;99.90
43581;DHT22;29175;51.030;4.606;2022-09-09T15:54:08;20.20;99.90
43581;DHT22;29175;51.030;4.606;2022-09-09T15:56:34;19.90;99.90
43581;DHT22;29175;51.030;4.606;2022-09-09T15:59:02;19.80;99.90
43581;DHT22;29175;51.030;4.606;2022-09-09T16:01:29;19.90;99.90
43581;DHT22;29175;51.030;4.606;2022-09-09T16:03:56;19.90;99.90
43581;DHT22;29175;51.030;4.606;2022-09-09T16:16:44;18.40;99.90
43581;DHT22;29175;51.030;4.606;2022-09-09T16:32:37;18.80;99.90
43581;DHT22;29175;51.030;4.606;2022-09-09T16:38:26;19.00;99.90
43581;DHT22;29175;51.030;4.606;2022-09-09T16:47:36;19.00;99.90
43581;DHT22;29175;51.030;4.606;2022-09-09T16:50:30;19.30;99.90
43581;DHT22;29175;51.030;4.606;2022-09-09T16:52:56;19.40;99.90
43581;DHT22;29175;51.030;4.606;2022-09-09T16:55:21;19.30;99.90
43581;DHT22;29175;51.030;4.606;2022-09-09T16:57:48;19.40;99.90
43581;DHT22;29175;51.030;4.606;2022-09-09T17:00:16;19.30;99.90
43581;DHT22;29175;51.030;4.606;2022-09-09T17:02:44;19.20;99.90
43581;DHT22;29175;51.030;4.606;2022-09-09T17:08:29;19.40;99.90
43581;DHT22;29175;51.030;4.606;2022-09-09T17:10:57;19.40;99.90
43581;DHT22;29175;51.030;4.606;2022-09-09T17:13:23;19.50;99.90
43581;DHT22;29175;51.030;4.606;2022-09-09T17:16:12;19.40;99.90
43581;DHT22;29175;51.030;4.606;2022-09-09T17:18:51;19.30;99.90
43581;DHT22;29175;51.030;4.606;2022-09-09T17:21:20;19.30;99.90
43581;DHT22;29175;51.030;4.606;2022-09-09T17:23:46;19.40;99.90
43581;DHT22;29175;51.030;4.606;2022-09-09T17:26:15;19.40;99.90
43581;DHT22;29175;51.030;4.606;2022-09-09T17:28:41;19.40;99.90
43581;DHT22;29175;51.030;4.606;2022-09-09T17:37:57;19.20;99.90
43581;DHT22;29175;51.030;4.606;2022-09-09T17:40:23;18.90;99.90
43581;DHT22;29175;51.030;4.606;2022-09-09T17:42:49;19.10;99.90
43581;DHT22;29175;51.030;4.606;2022-09-09T17:45:14;19.10;99.90
43581;DHT22;29175;51.030;4.606;2022-09-09T17:47:41;18.90;99.90
43581;DHT22;29175;51.030;4.606;2022-09-09T17:50:08;18.80;99.90
43581;DHT22;29175;51.030;4.606;2022-09-09T17:55:54;19.30;99.90
43581;DHT22;29175;51.030;4.606;2022-09-09T17:58:20;19.30;99.90
43581;DHT22;29175;51.030;4.606;2022-09-09T18:07:32;19.20;99.90
43581;DHT22;29175;51.030;4.606;2022-09-09T18:26:37;18.80;99.90
43581;DHT22;29175;51.030;4.606;2022-09-09T18:29:10;18.70;99.90
43581;DHT22;29175;51.030;4.606;2022-09-09T18:31:37;18.90;99.90
43581;DHT22;29175;51.030;4.606;2022-09-09T18:34:05;18.90;99.90
43581;DHT22;29175;51.030;4.606;2022-09-09T18:36:33;18.70;99.90
43581;DHT22;29175;51.030;4.606;2022-09-09T18:39:01;18.60;99.90
43581;DHT22;29175;51.030;4.606;2022-09-09T18:41:39;18.80;99.90
43581;DHT22;29175;51.030;4.606;2022-09-09T18:44:10;18.70;99.90
43581;DHT22;29175;51.030;4.606;2022-09-09T18:46:38;18.50;99.90
43581;DHT22;29175;51.030;4.606;2022-09-09T18:49:05;18.40;99.90
43581;DHT22;29175;51.030;4.606;2022-09-09T18:51:31;18.30;99.90
43581;DHT22;29175;51.030;4.606;2022-09-09T18:54:07;18.40;99.90
43581;DHT22;29175;51.030;4.606;2022-09-09T18:56:35;18.30;99.90
43581;DHT22;29175;51.030;4.606;2022-09-09T18:59:04;18.30;99.90
43581;DHT22;29175;51.030;4.606;2022-09-09T19:01:31;18.40;99.90
43581;DHT22;29175;51.030;4.606;2022-09-09T19:04:00;18.40;99.90
43581;DHT22;29175;51.030;4.606;2022-09-09T19:06:28;18.40;99.90
43581;DHT22;29175;51.030;4.606;2022-09-09T19:08:57;18.20;99.90
43581;DHT22;29175;51.030;4.606;2022-09-09T19:11:25;18.00;99.90
43581;DHT22;29175;51.030;4.606;2022-09-09T19:13:56;18.10;99.90
43581;DHT22;29175;51.030;4.606;2022-09-09T19:16:23;18.30;99.90
43581;DHT22;29175;51.030;4.606;2022-09-09T19:18:50;18.40;99.90
43581;DHT22;29175;51.030;4.606;2022-09-09T19:21:20;18.30;99.90
43581;DHT22;29175;51.030;4.606;2022-09-09T19:24:11;18.40;99.90
43581;DHT22;29175;51.030;4.606;2022-09-09T19:26:43;18.40;99.90
43581;DHT22;29175;51.030;4.606;2022-09-09T19:29:15;18.20;99.90
43581;DHT22;29175;51.030;4.606;2022-09-09T19:31:45;18.20;99.90
43581;DHT22;29175;51.030;4.606;2022-09-09T19:34:11;18.10;99.90
43581;DHT22;29175;51.030;4.606;2022-09-09T19:36:37;18.10;99.90
43581;DHT22;29175;51.030;4.606;2022-09-09T19:39:05;18.00;99.90
43581;DHT22;29175;51.030;4.606;2022-09-09T19:41:31;18.00;99.90
43581;DHT22;29175;51.030;4.606;2022-09-09T19:43:59;18.00;99.90
43581;DHT22;29175;51.030;4.606;2022-09-09T19:46:30;18.00;99.90
43581;DHT22;29175;51.030;4.606;2022-09-09T19:48:57;18.10;99.90
43581;DHT22;29175;51.030;4.606;2022-09-09T19:51:24;18.30;99.90
43581;DHT22;29175;51.030;4.606;2022-09-09T19:53:53;18.20;99.90
43581;DHT22;29175;51.030;4.606;2022-09-09T19:56:25;18.20;99.90
43581;DHT22;29175;51.030;4.606;2022-09-09T19:58:52;18.20;99.90
43581;DHT22;29175;51.030;4.606;2022-09-09T20:01:25;18.20;99.90
43581;DHT22;29175;51.030;4.606;2022-09-09T20:03:52;18.10;99.90
43581;DHT22;29175;51.030;4.606;2022-09-09T20:06:23;17.90;99.90
43581;DHT22;29175;51.030;4.606;2022-09-09T20:08:51;18.10;99.90
43581;DHT22;29175;51.030;4.606;2022-09-09T20:11:17;18.20;99.90
43581;DHT22;29175;51.030;4.606;2022-09-09T20:13:46;18.00;99.90
43581;DHT22;29175;51.030;4.606;2022-09-09T20:16:16;17.90;99.90
43581;DHT22;29175;51.030;4.606;2022-09-09T20:18:45;18.00;99.90